Etusivu
METAR-TAF:

METAR-TAF

Lentoasemat :

Curaçao, Alankomaiden Antillit

Leveyspiiri: 12-12N, Pituuspiiri: 068-58W, korkeus merenpinnasta: 9 m

Tämänhetkinen sää

Tämä raportti tehtiin 14 minuuttia sitten, kello 05.00 UTC
Tuuli 12 kn idästä
Lämpötila 27°C
Kosteus 84%
Ilmanpaine 1012 hPa
Näkyvyys 10 km tai enemmän
Hajanaisia pilviä 1700 ft:n korkeudessa

METAR: TNCC 270500Z 09012KT 9999 SCT017 27/24 Q1012 NOSIG

Aika: 01:14 (05:14 UTC)

Sääennuste

Tämä raportti tehtiin 7 tuntia ja 33 minuuttia sitten, kello 21.41 UTC
Ennuste voimassa 27. päivästä klo 00 UTC - 27. päivään klo 24 UTC
Tuuli 14 kn idästä puuskistuen 24 kn:hen
Näkyvyys 10 km tai enemmän
Hajanaisia pilviä 2000 ft:n korkeudessa
Todennäköisyys 30% :
Ajoittain
27. päivästä klo 05 UTC - 27. päivään klo 12 UTC
Hajonneita pilviä 1400 ft:n korkeudessa

TAF: TNCC 262141Z 2700/2724 09014G24KT 9999 SCT020 PROB30 TEMPO 2705/2712 BKN014

Säähavainnot ja -ennusteet yli 4000 lentoasemalta (METAR- ja TAF-raportit).

Käytössä olevat sääasemat on merkitty karttaan keltaisilla ja punaisilla pisteillä.

Aseta hiiri pisteen päälle nähdäksesi sääaseman nimen.

Klikkaa sitten nähdäksesi säähavainnot ja -ennusteet.

Kartan vaihtaminen: klikkaa mustalla rastilla varustettuja vihreitä pisteitä, niin voit zoomata sisään; viivalla varustettua vihreää pistettä, niin voit zoomata ulos tai vihreitä nuolia, niin pääset viereisille kartoille.


METAR-TAF: